Pagrindinis puslapis
METAR-TAF:

METAR-TAF

Oro uostai :

Ipohas, Malaizija

platuma: 04-34-09N, ilguma: 101-05-35E, Aukštis: 40 m

Dabartinis oras

Ataskaita buvo paskelbta 32 minutes, ne 14:00 UTC
Ramus vėjas
Temperatūra 29°C
Drėgmė 79%
Slėgis 1010 hPa
Matomumas: 8000 m
Mažai debesys ne aukštis 3000 ft
Su prošvaistėmis ne aukštis 28000 ft

METAR: WMKI 171400Z 00000KT 8000 FEW030 BKN280 29/25 Q1010

Laikas: 22:32 (14:32 UTC)

Prognozė

Ataskaita buvo paskelbta 3 valandos ir 32 minutes, ne 11:00 UTC
Prognozė galioja nuo 17 metu 12 UTC su 18 metu 12 UTC
Vėjas 3 kt nuo kintamojo kryptimis
Matomumas: 8000 m
Mažai debesys ne aukštis 1000 ft
Tapsmas
nuo 17 metu 23 UTC su 18 metu 01 UTC
Matomumas 10 km arba daugiau
Mažai debesys ne aukštis 2000 ft
Laikinai
nuo 18 metu 06 UTC su 18 metu 10 UTC
Vėjas 10 kt iš Pietvakarių
Matomumas: 6000 m
Mažai debesys ne aukštis 1700 ft, Liūtiniai kamuoliniai debesys.
perkūnija, lietus

TAF: WMKI 171100Z 1712/1812 VRB03KT 8000 FEW010 BECMG 1723/1801 9999 FEW020 TEMPO 1806/1810 22010KT 6000 -TSRA FEW017CB

Orai ataskaitas ir orų prognozės (METAR, TAF).

turimą stotys yra geltonos ir raudonos taškus žemėlapyje.

Perkelti pele per norėdami pamatyti stoties vardą.

Tada spustelėkite, norėdami matyti oro stebėjimo ir prognozės.

Norėdami pakeisti žemėlapį: spustelėkite ant žalios mygtukų su juodo kryžiaus žemyn,; žalią mygtuką su brūkšneliu, jei norite nutolinti; arba žalių rodyklių gretimoms žemėlapius.


METAR-TAF: